createdAt,value
2019-03-01T00:01:15.885Z,92.80
2019-03-01T00:03:44.754Z,92.90
2019-03-01T00:06:28.127Z,92.90
2019-03-01T00:09:28.839Z,92.80
2019-03-01T00:12:06.354Z,92.80
2019-03-01T00:14:57.419Z,92.90
2019-03-01T00:17:59.171Z,93.00
2019-03-01T00:20:50.013Z,93.20
2019-03-01T00:23:39.440Z,93.30
2019-03-01T00:26:20.151Z,93.00
2019-03-01T00:28:57.559Z,92.90
2019-03-01T00:31:51.660Z,93.00
2019-03-01T00:34:23.295Z,93.20
2019-03-01T00:37:12.987Z,93.30
2019-03-01T00:39:44.567Z,93.60
2019-03-01T00:42:34.247Z,93.80
2019-03-01T00:45:02.831Z,93.90
2019-03-01T00:47:31.298Z,93.90
2019-03-01T00:49:59.770Z,94.10
2019-03-01T00:52:28.348Z,94.10
2019-03-01T00:54:56.881Z,94.10
2019-03-01T00:57:25.379Z,94.10
2019-03-01T00:59:53.839Z,93.90
2019-03-01T01:02:22.303Z,93.80
2019-03-01T01:04:50.795Z,93.70
2019-03-01T01:07:19.471Z,93.70
2019-03-01T01:09:48.047Z,93.80
2019-03-01T01:12:16.587Z,93.80
2019-03-01T01:14:45.115Z,93.80
2019-03-01T01:17:13.602Z,93.70
2019-03-01T01:19:42.068Z,93.60
2019-03-01T01:22:10.638Z,93.30
2019-03-01T01:24:39.099Z,93.40
2019-03-01T01:27:07.683Z,93.10
2019-03-01T01:29:36.167Z,93.10
2019-03-01T01:32:04.648Z,93.20
2019-03-01T01:34:33.190Z,93.10
2019-03-01T01:37:01.755Z,93.10
2019-03-01T01:39:30.218Z,93.10
2019-03-01T01:41:58.687Z,93.20
2019-03-01T01:44:27.207Z,93.00
2019-03-01T01:46:55.674Z,93.20
2019-03-01T01:49:24.151Z,92.90
2019-03-01T01:51:52.616Z,92.60
2019-03-01T01:54:21.103Z,92.10
2019-03-01T01:56:49.591Z,92.30
2019-03-01T01:59:18.150Z,91.90
2019-03-01T02:01:46.638Z,91.80
2019-03-01T02:04:15.095Z,91.70
2019-03-01T02:06:43.651Z,91.00
2019-03-01T02:09:20.995Z,91.00
2019-03-01T02:11:49.927Z,91.10
2019-03-01T02:14:18.469Z,91.20
2019-03-01T02:16:47.090Z,91.00
2019-03-01T02:19:15.551Z,91.20
2019-03-01T02:21:44.012Z,91.40
2019-03-01T02:24:12.567Z,91.60
2019-03-01T02:26:41.122Z,91.60
2019-03-01T02:29:09.695Z,91.70
2019-03-01T02:31:40.016Z,91.40
2019-03-01T02:34:08.572Z,91.60
2019-03-01T02:36:37.108Z,91.80
2019-03-01T02:39:06.430Z,91.90
2019-03-01T02:41:35.038Z,91.60
2019-03-01T02:44:03.605Z,91.50
2019-03-01T02:46:32.159Z,91.60
2019-03-01T02:49:00.719Z,91.60
2019-03-01T02:51:29.255Z,91.50
2019-03-01T02:53:57.811Z,91.50
2019-03-01T02:56:26.372Z,91.70
2019-03-01T02:58:54.916Z,91.50
2019-03-01T03:01:23.543Z,91.80
2019-03-01T03:03:52.012Z,92.10
2019-03-01T03:06:22.199Z,92.40
2019-03-01T03:08:50.686Z,92.40
2019-03-01T03:11:19.215Z,92.50
2019-03-01T03:13:47.676Z,92.50
2019-03-01T03:16:16.235Z,92.60
2019-03-01T03:18:44.699Z,92.50
2019-03-01T03:21:13.332Z,93.00
2019-03-01T03:23:41.867Z,93.20
2019-03-01T03:26:10.330Z,93.30
2019-03-01T03:28:38.885Z,93.30
2019-03-01T03:31:07.420Z,93.40
2019-03-01T03:33:35.981Z,93.60
2019-03-01T03:36:04.591Z,93.50
2019-03-01T03:38:33.148Z,93.60
2019-03-01T03:41:01.671Z,93.60
2019-03-01T03:43:30.170Z,93.80
2019-03-01T03:45:58.706Z,94.10
2019-03-01T03:48:27.308Z,94.00
2019-03-01T03:50:55.867Z,94.30
2019-03-01T03:53:24.482Z,94.50
2019-03-01T03:55:53.282Z,94.60
2019-03-01T03:58:21.809Z,94.70
2019-03-01T04:00:50.509Z,94.70
2019-03-01T04:03:19.290Z,94.80
2019-03-01T04:05:47.771Z,94.90
2019-03-01T04:08:16.232Z,94.90
2019-03-01T04:10:44.689Z,94.80
2019-03-01T04:13:13.256Z,95.00
2019-03-01T04:15:41.729Z,94.90
2019-03-01T04:18:10.251Z,95.40
2019-03-01T04:20:38.744Z,95.50
2019-03-01T04:23:07.209Z,95.50
2019-03-01T04:25:35.971Z,95.50
2019-03-01T04:28:04.568Z,95.50
2019-03-01T04:30:33.111Z,95.40
2019-03-01T04:33:01.609Z,95.90
2019-03-01T04:35:30.146Z,95.70
2019-03-01T04:37:58.638Z,95.80
2019-03-01T04:40:27.176Z,95.80
2019-03-01T04:42:55.855Z,95.80
2019-03-01T04:45:24.318Z,95.80
2019-03-01T04:47:52.778Z,95.80
2019-03-01T04:50:21.347Z,95.60
2019-03-01T04:52:49.952Z,95.40
2019-03-01T04:55:20.793Z,95.50
2019-03-01T04:57:49.359Z,95.60
2019-03-01T05:00:19.963Z,95.70
2019-03-01T05:02:48.531Z,95.80
2019-03-01T05:05:17.530Z,95.70
2019-03-01T05:07:46.205Z,95.50
2019-03-01T05:10:15.583Z,95.60
2019-03-01T05:12:44.419Z,95.80
2019-03-01T05:15:15.491Z,95.70
2019-03-01T05:17:44.258Z,95.70
2019-03-01T05:20:13.335Z,95.80
2019-03-01T05:22:41.996Z,95.80
2019-03-01T05:25:11.330Z,95.80
2019-03-01T05:27:39.932Z,95.90
2019-03-01T05:30:11.131Z,95.80
2019-03-01T05:32:39.691Z,95.90
2019-03-01T05:35:09.130Z,95.70
2019-03-01T05:37:37.666Z,96.00
2019-03-01T05:40:11.920Z,95.70
2019-03-01T05:42:40.532Z,95.80
2019-03-01T05:45:14.732Z,95.90
2019-03-01T05:47:43.319Z,95.90
2019-03-01T05:50:32.674Z,95.90
2019-03-01T05:53:01.158Z,95.80
2019-03-01T05:55:29.683Z,95.70
2019-03-01T05:58:18.197Z,95.70
2019-03-01T06:00:47.371Z,95.70
2019-03-01T06:03:27.786Z,95.70
2019-03-01T06:05:56.355Z,95.70
2019-03-01T06:08:33.731Z,95.50
2019-03-01T06:11:04.239Z,95.50
2019-03-01T06:13:50.823Z,95.50
2019-03-01T06:16:31.419Z,95.60
2019-03-01T06:19:18.127Z,95.70
2019-03-01T06:22:00.000Z,95.70
2019-03-01T06:24:49.638Z,95.20
2019-03-01T06:27:36.163Z,95.30
2019-03-01T06:30:19.704Z,95.30
2019-03-01T06:33:06.499Z,95.30
2019-03-01T06:35:42.036Z,95.10
2019-03-01T06:38:34.166Z,95.30
2019-03-01T06:41:22.250Z,95.40
2019-03-01T06:44:02.558Z,95.20
2019-03-01T06:47:02.471Z,95.20
2019-03-01T06:49:48.942Z,95.00
2019-03-01T06:52:19.154Z,95.10
2019-03-01T06:54:47.720Z,95.00
2019-03-01T06:57:16.187Z,94.50
2019-03-01T06:59:44.851Z,94.00
2019-03-01T07:02:17.504Z,94.20
2019-03-01T07:04:45.991Z,94.20
2019-03-01T07:07:14.550Z,94.20
2019-03-01T07:09:43.039Z,94.10
2019-03-01T07:12:11.570Z,94.20
2019-03-01T07:14:40.059Z,93.70
2019-03-01T07:17:08.715Z,93.60
2019-03-01T07:19:37.351Z,93.60
2019-03-01T07:22:05.911Z,93.60
2019-03-01T07:24:34.389Z,93.80
2019-03-01T07:27:02.935Z,93.70
2019-03-01T07:29:31.426Z,93.50
2019-03-01T07:31:59.934Z,93.50
2019-03-01T07:34:28.480Z,93.20
2019-03-01T07:36:56.944Z,93.40
2019-03-01T07:39:25.519Z,93.20
2019-03-01T07:41:54.058Z,93.00
2019-03-01T07:44:22.527Z,92.70
2019-03-01T07:46:53.255Z,92.30
2019-03-01T07:49:21.227Z,92.60
2019-03-01T07:51:49.699Z,92.10
2019-03-01T07:54:18.264Z,91.80
2019-03-01T07:56:46.859Z,91.40
2019-03-01T07:59:15.367Z,91.20
2019-03-01T08:01:43.857Z,90.40
2019-03-01T08:04:12.419Z,87.80
2019-03-01T08:06:40.959Z,85.30
2019-03-01T08:09:13.270Z,85.30
2019-03-01T08:11:41.836Z,85.70
2019-03-01T08:14:10.454Z,85.90
2019-03-01T08:16:39.311Z,86.50
2019-03-01T08:19:07.919Z,86.00
2019-03-01T08:21:36.390Z,86.20
2019-03-01T08:24:07.758Z,85.70
2019-03-01T08:26:35.239Z,85.50
2019-03-01T08:29:03.923Z,85.40
2019-03-01T08:31:32.541Z,85.40
2019-03-01T08:34:01.141Z,84.20
2019-03-01T08:36:29.627Z,81.80
2019-03-01T08:39:00.980Z,81.10
2019-03-01T08:41:28.303Z,80.60
2019-03-01T08:43:56.763Z,80.00
2019-03-01T08:46:26.799Z,79.00
2019-03-01T08:48:55.475Z,80.00
2019-03-01T08:51:26.587Z,79.90
2019-03-01T08:53:54.230Z,80.20
2019-03-01T08:56:26.126Z,81.60
2019-03-01T08:58:52.892Z,81.90
2019-03-01T09:01:24.219Z,80.00
2019-03-01T09:04:01.632Z,77.00
2019-03-01T09:06:30.105Z,73.00
2019-03-01T09:08:58.679Z,69.70
2019-03-01T09:11:27.211Z,66.90
2019-03-01T09:13:55.755Z,61.50
2019-03-01T09:16:24.381Z,59.20
2019-03-01T09:18:52.938Z,58.10
2019-03-01T09:21:21.471Z,57.00
2019-03-01T09:23:52.219Z,56.80
2019-03-01T09:26:20.763Z,59.20
2019-03-01T09:28:49.447Z,60.80
2019-03-01T09:31:17.983Z,58.80
2019-03-01T09:33:46.545Z,55.50
2019-03-01T09:36:22.439Z,52.70
2019-03-01T09:38:50.931Z,51.70
2019-03-01T09:41:19.475Z,50.40
2019-03-01T09:43:48.063Z,49.50
2019-03-01T09:46:16.687Z,51.60
2019-03-01T09:48:45.558Z,52.60
2019-03-01T09:51:15.988Z,53.30
2019-03-01T09:53:44.674Z,56.80
2019-03-01T09:56:13.807Z,58.50
2019-03-01T09:58:42.578Z,57.80
2019-03-01T10:01:36.428Z,58.80
2019-03-01T10:04:05.175Z,59.60
2019-03-01T10:06:38.143Z,61.10
2019-03-01T10:09:06.968Z,63.00
2019-03-01T10:11:35.462Z,62.90
2019-03-01T10:14:04.022Z,64.20
2019-03-01T10:16:32.587Z,64.80
2019-03-01T10:19:01.051Z,64.30
2019-03-01T10:21:29.535Z,62.40
2019-03-01T10:23:58.071Z,62.10
2019-03-01T10:26:26.560Z,61.50
2019-03-01T10:28:55.051Z,59.50
2019-03-01T10:31:23.535Z,58.80
2019-03-01T10:33:52.128Z,58.60
2019-03-01T10:36:20.687Z,58.20
2019-03-01T10:38:49.194Z,60.10
2019-03-01T10:41:17.663Z,62.10
2019-03-01T10:43:46.200Z,63.80
2019-03-01T10:46:14.687Z,65.10
2019-03-01T10:48:43.160Z,65.20
2019-03-01T10:51:11.725Z,65.00
2019-03-01T10:53:40.259Z,64.80
2019-03-01T10:56:08.751Z,63.40
2019-03-01T10:58:37.421Z,63.00
2019-03-01T11:01:06.218Z,63.70
2019-03-01T11:03:34.687Z,65.20
2019-03-01T11:06:03.413Z,65.70
2019-03-01T11:08:31.947Z,66.90
2019-03-01T11:11:00.415Z,67.00
2019-03-01T11:13:29.145Z,68.30
2019-03-01T11:15:57.822Z,69.10
2019-03-01T11:18:26.352Z,69.80
2019-03-01T11:20:55.048Z,70.80
2019-03-01T11:23:23.654Z,71.20
2019-03-01T11:25:52.271Z,70.30
2019-03-01T11:28:20.832Z,71.10
2019-03-01T11:30:49.299Z,72.00
2019-03-01T11:33:18.116Z,70.70
2019-03-01T11:35:46.747Z,71.10
2019-03-01T11:38:15.216Z,71.00
2019-03-01T11:40:43.707Z,70.40
2019-03-01T11:43:12.257Z,70.60
2019-03-01T11:45:40.955Z,70.70
2019-03-01T11:48:09.583Z,70.60
2019-03-01T11:50:38.171Z,70.00
2019-03-01T11:53:06.711Z,69.20
2019-03-01T11:55:35.188Z,68.40
2019-03-01T11:58:03.756Z,67.90
2019-03-01T12:00:32.367Z,67.50
2019-03-01T12:03:00.940Z,66.20
2019-03-01T12:05:29.412Z,66.80
2019-03-01T12:07:58.144Z,67.00
2019-03-01T12:10:29.253Z,67.60
2019-03-01T12:12:57.837Z,68.10
2019-03-01T12:15:26.499Z,68.20
2019-03-01T12:17:54.993Z,68.40
2019-03-01T12:20:31.075Z,69.20
2019-03-01T12:22:59.646Z,70.10
2019-03-01T12:25:28.367Z,70.90
2019-03-01T12:27:56.838Z,71.90
2019-03-01T12:30:27.193Z,71.80
2019-03-01T12:32:55.832Z,71.90
2019-03-01T12:35:24.371Z,71.00
2019-03-01T12:37:52.927Z,71.10
2019-03-01T12:40:24.571Z,70.60
2019-03-01T12:42:53.111Z,71.00
2019-03-01T12:45:21.679Z,71.40
2019-03-01T12:47:50.406Z,71.30
2019-03-01T12:50:19.043Z,71.00
2019-03-01T12:52:49.337Z,70.40
2019-03-01T12:55:25.191Z,70.10
2019-03-01T12:57:53.835Z,70.10
2019-03-01T13:00:39.643Z,69.90
2019-03-01T13:03:09.073Z,69.30
2019-03-01T13:05:38.451Z,69.00
2019-03-01T13:08:07.200Z,69.30
2019-03-01T13:10:40.368Z,69.20
2019-03-01T13:13:08.553Z,69.80
2019-03-01T13:15:37.694Z,68.30
2019-03-01T13:18:06.176Z,67.20
2019-03-01T13:20:37.203Z,67.80
2019-03-01T13:23:06.208Z,68.40
2019-03-01T13:25:35.064Z,68.70
2019-03-01T13:28:03.683Z,68.80
2019-03-01T13:30:32.728Z,69.40
2019-03-01T13:33:03.660Z,69.70
2019-03-01T13:35:32.332Z,70.60
2019-03-01T13:38:00.869Z,70.80
2019-03-01T13:40:29.492Z,71.40
2019-03-01T13:42:58.026Z,71.60
2019-03-01T13:45:27.030Z,71.40
2019-03-01T13:47:55.562Z,71.80
2019-03-01T13:50:24.134Z,72.30
2019-03-01T13:52:52.816Z,72.90
2019-03-01T13:55:23.670Z,73.00
2019-03-01T13:57:52.563Z,72.90
2019-03-01T14:00:24.223Z,73.20
2019-03-01T14:02:52.875Z,73.80
2019-03-01T14:05:21.417Z,74.10
2019-03-01T14:07:55.130Z,74.90
2019-03-01T14:10:28.728Z,74.70
2019-03-01T14:12:57.286Z,74.20
2019-03-01T14:15:25.831Z,74.10
2019-03-01T14:18:00.633Z,74.60
2019-03-01T14:20:24.824Z,73.80
2019-03-01T14:22:53.400Z,73.00
2019-03-01T14:25:22.087Z,73.10
2019-03-01T14:27:52.793Z,72.80
2019-03-01T14:30:29.156Z,73.30
2019-03-01T14:32:57.758Z,73.50
2019-03-01T14:35:26.835Z,72.50
2019-03-01T14:37:55.984Z,72.00
2019-03-01T14:40:24.547Z,72.30
2019-03-01T14:42:53.096Z,71.90
2019-03-01T14:45:32.423Z,72.10
2019-03-01T14:48:00.899Z,72.30
2019-03-01T14:50:33.620Z,72.60
2019-03-01T14:53:01.090Z,72.30
2019-03-01T14:55:33.070Z,71.50
2019-03-01T14:58:04.979Z,71.70
2019-03-01T15:00:49.617Z,73.00
2019-03-01T15:03:30.691Z,73.50
2019-03-01T15:05:59.515Z,74.10
2019-03-01T15:08:28.065Z,75.00
2019-03-01T15:10:58.279Z,75.00
2019-03-01T15:13:27.858Z,75.40
2019-03-01T15:15:57.270Z,75.20
2019-03-01T15:18:29.000Z,75.80
2019-03-01T15:21:01.418Z,76.10
2019-03-01T15:23:26.512Z,75.80
2019-03-01T15:25:55.047Z,75.70
2019-03-01T15:28:23.620Z,76.40
2019-03-01T15:30:53.033Z,76.80
2019-03-01T15:33:21.644Z,77.40
2019-03-01T15:35:50.299Z,77.40
2019-03-01T15:38:18.771Z,77.10
2019-03-01T15:40:47.351Z,77.70
2019-03-01T15:43:15.955Z,78.10
2019-03-01T15:45:44.503Z,78.10
2019-03-01T15:48:13.043Z,78.60
2019-03-01T15:50:41.543Z,79.00
2019-03-01T15:53:10.102Z,79.10
2019-03-01T15:55:38.651Z,79.30
2019-03-01T15:58:07.150Z,79.30
2019-03-01T16:00:35.763Z,79.30
2019-03-01T16:03:05.091Z,79.30
2019-03-01T16:05:34.279Z,79.40
2019-03-01T16:08:05.535Z,79.20
2019-03-01T16:10:36.038Z,79.10
2019-03-01T16:13:04.491Z,79.10
2019-03-01T16:15:34.944Z,79.30
2019-03-01T16:18:03.271Z,79.40
2019-03-01T16:20:31.880Z,79.30
2019-03-01T16:23:00.447Z,79.10
2019-03-01T16:25:29.016Z,79.20
2019-03-01T16:27:57.487Z,79.30
2019-03-01T16:30:25.979Z,79.50
2019-03-01T16:32:54.474Z,79.90
2019-03-01T16:35:22.943Z,79.80
2019-03-01T16:37:53.151Z,80.00
2019-03-01T16:40:21.720Z,80.40
2019-03-01T16:42:54.321Z,80.70
2019-03-01T16:45:21.000Z,81.40
2019-03-01T16:47:50.483Z,80.60
2019-03-01T16:50:20.199Z,80.40
2019-03-01T16:52:48.911Z,80.60
2019-03-01T16:55:19.967Z,80.50
2019-03-01T16:57:48.690Z,81.20
2019-03-01T17:00:20.955Z,80.70
2019-03-01T17:03:17.959Z,80.60
2019-03-01T17:05:44.859Z,80.40
2019-03-01T17:08:13.403Z,80.60
2019-03-01T17:10:41.963Z,81.10
2019-03-01T17:13:10.496Z,81.40
2019-03-01T17:15:39.126Z,81.80
2019-03-01T17:18:11.300Z,82.30
2019-03-01T17:20:38.600Z,82.60
2019-03-01T17:23:07.283Z,82.80
2019-03-01T17:25:35.754Z,83.00
2019-03-01T17:28:04.518Z,83.00
2019-03-01T17:30:33.127Z,83.10
2019-03-01T17:33:01.851Z,83.00
2019-03-01T17:35:30.382Z,83.20
2019-03-01T17:37:58.871Z,83.40
2019-03-01T17:40:29.225Z,83.70
2019-03-01T17:42:57.630Z,83.40
2019-03-01T17:45:26.840Z,83.10
2019-03-01T17:47:55.605Z,83.00
2019-03-01T17:50:24.195Z,83.30
2019-03-01T17:52:52.732Z,84.20
2019-03-01T17:55:25.870Z,83.40
2019-03-01T17:57:54.351Z,83.10
2019-03-01T18:00:41.234Z,83.50
2019-03-01T18:03:09.699Z,82.60
2019-03-01T18:05:40.663Z,82.80
2019-03-01T18:08:08.486Z,83.00
2019-03-01T18:10:37.119Z,83.00
2019-03-01T18:13:05.742Z,83.00
2019-03-01T18:15:34.383Z,82.90
2019-03-01T18:18:02.919Z,82.80
2019-03-01T18:20:33.978Z,83.20
2019-03-01T18:23:02.179Z,83.00
2019-03-01T18:25:31.694Z,83.10
2019-03-01T18:28:00.234Z,83.00
2019-03-01T18:30:34.622Z,84.40
2019-03-01T18:33:03.119Z,84.10
2019-03-01T18:35:31.655Z,84.50
2019-03-01T18:38:00.123Z,84.60
2019-03-01T18:40:28.685Z,84.70
2019-03-01T18:42:57.166Z,84.80
2019-03-01T18:45:31.230Z,85.70
2019-03-01T18:47:59.731Z,85.10
2019-03-01T18:50:38.671Z,85.50
2019-03-01T18:53:07.175Z,85.70
2019-03-01T18:55:35.727Z,85.60
2019-03-01T18:58:05.343Z,85.20
2019-03-01T19:00:42.754Z,85.10
2019-03-01T19:03:11.294Z,84.60
2019-03-01T19:05:41.188Z,84.30
2019-03-01T19:08:09.937Z,84.40
2019-03-01T19:10:38.645Z,84.60
2019-03-01T19:13:07.456Z,84.60
2019-03-01T19:15:36.127Z,84.40
2019-03-01T19:18:05.868Z,84.60
2019-03-01T19:20:42.752Z,83.00
2019-03-01T19:23:11.215Z,83.30
2019-03-01T19:25:39.748Z,83.70
2019-03-01T19:28:08.303Z,83.80
2019-03-01T19:30:36.911Z,84.10
2019-03-01T19:33:05.466Z,84.20
2019-03-01T19:35:34.101Z,83.70
2019-03-01T19:38:02.658Z,83.70
2019-03-01T19:40:31.263Z,84.60
2019-03-01T19:42:59.860Z,84.80
2019-03-01T19:45:28.535Z,84.60
2019-03-01T19:48:01.644Z,85.10
2019-03-01T19:50:28.725Z,84.90
2019-03-01T19:52:57.189Z,84.60
2019-03-01T19:55:25.813Z,85.00
2019-03-01T19:57:54.542Z,83.60
2019-03-01T20:00:30.280Z,83.90
2019-03-01T20:02:58.986Z,83.60
2019-03-01T20:05:35.595Z,81.40
2019-03-01T20:08:04.329Z,81.80
2019-03-01T20:10:32.911Z,81.10
2019-03-01T20:13:01.542Z,81.30
2019-03-01T20:15:31.279Z,81.60
2019-03-01T20:17:59.943Z,81.90
2019-03-01T20:20:29.873Z,82.50
2019-03-01T20:23:00.217Z,81.90
2019-03-01T20:25:28.973Z,81.50
2019-03-01T20:27:57.439Z,81.90
2019-03-01T20:30:31.259Z,82.10
2019-03-01T20:32:59.871Z,82.00
2019-03-01T20:35:28.353Z,82.40
2019-03-01T20:38:00.108Z,82.60
2019-03-01T20:40:28.333Z,83.10
2019-03-01T20:43:00.182Z,83.60
2019-03-01T20:45:30.035Z,84.30
2019-03-01T20:47:58.844Z,84.30
2019-03-01T20:50:27.379Z,84.40
2019-03-01T20:52:55.847Z,84.30
2019-03-01T20:55:24.495Z,84.30
2019-03-01T20:57:53.106Z,83.90
2019-03-01T21:00:26.164Z,82.80
2019-03-01T21:02:53.300Z,83.60
2019-03-01T21:05:24.962Z,83.00
2019-03-01T21:07:53.804Z,82.30
2019-03-01T21:10:27.023Z,82.20
2019-03-01T21:12:55.562Z,81.90
2019-03-01T21:15:24.403Z,81.90
2019-03-01T21:17:56.809Z,81.00
2019-03-01T21:20:23.130Z,81.10
2019-03-01T21:22:51.692Z,80.70
2019-03-01T21:25:24.931Z,82.10
2019-03-01T21:27:53.471Z,81.30
2019-03-01T21:30:32.243Z,81.70
2019-03-01T21:33:00.814Z,81.40
2019-03-01T21:35:29.286Z,81.20
2019-03-01T21:37:57.781Z,81.40
2019-03-01T21:40:26.318Z,80.80
2019-03-01T21:42:57.283Z,81.50
2019-03-01T21:45:25.414Z,81.50
2019-03-01T21:47:53.983Z,81.30
2019-03-01T21:50:22.524Z,81.50
2019-03-01T21:52:51.166Z,81.70
2019-03-01T21:55:28.565Z,82.00
2019-03-01T21:57:57.608Z,81.70
2019-03-01T22:00:29.478Z,82.80
2019-03-01T22:02:57.574Z,81.90
2019-03-01T22:05:26.141Z,81.60
2019-03-01T22:07:54.675Z,82.60
2019-03-01T22:10:23.310Z,81.40
2019-03-01T22:12:51.786Z,81.90
2019-03-01T22:15:25.563Z,81.90
2019-03-01T22:17:53.262Z,82.20
2019-03-01T22:20:22.490Z,81.90
2019-03-01T22:22:51.171Z,82.10
2019-03-01T22:25:19.706Z,82.10
2019-03-01T22:27:48.266Z,82.50
2019-03-01T22:30:25.305Z,82.90
2019-03-01T22:32:53.962Z,83.50
2019-03-01T22:35:22.602Z,83.70
2019-03-01T22:37:51.099Z,84.30
2019-03-01T22:40:19.561Z,84.10
2019-03-01T22:42:49.739Z,84.10
2019-03-01T22:45:19.087Z,84.50
2019-03-01T22:47:47.580Z,84.00
2019-03-01T22:50:17.355Z,84.20
2019-03-01T22:52:45.931Z,84.10
2019-03-01T22:55:15.938Z,84.70
2019-03-01T22:57:45.061Z,84.70
2019-03-01T23:00:50.055Z,85.30
2019-03-01T23:03:20.250Z,85.80
2019-03-01T23:05:49.039Z,85.90
2019-03-01T23:08:17.746Z,85.70
2019-03-01T23:10:46.254Z,85.70
2019-03-01T23:13:17.151Z,85.50
2019-03-01T23:15:45.011Z,85.10
2019-03-01T23:18:13.499Z,84.40
2019-03-01T23:20:42.391Z,84.40
2019-03-01T23:23:11.873Z,84.00
2019-03-01T23:25:42.769Z,83.90
2019-03-01T23:28:10.723Z,83.70
2019-03-01T23:30:39.286Z,83.30
2019-03-01T23:33:07.775Z,83.20
2019-03-01T23:35:36.276Z,83.00
2019-03-01T23:38:04.815Z,83.20
2019-03-01T23:40:35.886Z,83.20
2019-03-01T23:43:03.515Z,82.50
2019-03-01T23:45:32.031Z,82.00
2019-03-01T23:48:00.524Z,82.10
2019-03-01T23:50:31.553Z,82.80
2019-03-01T23:53:00.093Z,82.30
2019-03-01T23:55:28.704Z,82.30
2019-03-01T23:58:05.690Z,82.30
